sensor_id;sensor_type;location;lat;lon;timestamp;pressure;altitude;pressure_sealevel;temperature;humidity
14269;BME280;7218;51.480;7.006;2023-04-01T00:01:10;98295.16;;;12.19;99.74
14269;BME280;7218;51.480;7.006;2023-04-01T00:03:39;98302.38;;;12.30;99.14
14269;BME280;7218;51.480;7.006;2023-04-01T00:06:06;98297.03;;;12.75;96.21
14269;BME280;7218;51.480;7.006;2023-04-01T00:08:34;98297.44;;;12.69;96.66
14269;BME280;7218;51.480;7.006;2023-04-01T00:11:00;98293.47;;;12.48;97.46
14269;BME280;7218;51.480;7.006;2023-04-01T00:13:27;98288.09;;;12.35;97.30
14269;BME280;7218;51.480;7.006;2023-04-01T00:15:54;98286.25;;;12.37;97.55
14269;BME280;7218;51.480;7.006;2023-04-01T00:18:21;98285.56;;;12.64;96.06
14269;BME280;7218;51.480;7.006;2023-04-01T00:20:49;98300.03;;;12.25;98.23
14269;BME280;7218;51.480;7.006;2023-04-01T00:23:16;98297.84;;;12.47;96.64
14269;BME280;7218;51.480;7.006;2023-04-01T00:25:45;98285.00;;;12.59;96.58
14269;BME280;7218;51.480;7.006;2023-04-01T00:28:13;98294.44;;;12.31;97.98
14269;BME280;7218;51.480;7.006;2023-04-01T00:30:39;98289.31;;;12.30;98.71
14269;BME280;7218;51.480;7.006;2023-04-01T00:33:06;98285.19;;;12.70;97.08
14269;BME280;7218;51.480;7.006;2023-04-01T00:35:33;98312.25;;;12.55;97.64
14269;BME280;7218;51.480;7.006;2023-04-01T00:38:00;98289.16;;;11.87;100.00
14269;BME280;7218;51.480;7.006;2023-04-01T00:40:29;98285.50;;;12.79;97.05
14269;BME280;7218;51.480;7.006;2023-04-01T00:42:59;98286.69;;;12.74;97.44
14269;BME280;7218;51.480;7.006;2023-04-01T00:45:29;98295.84;;;12.37;99.50
14269;BME280;7218;51.480;7.006;2023-04-01T00:47:58;98285.91;;;12.43;98.93
14269;BME280;7218;51.480;7.006;2023-04-01T00:50:28;98284.25;;;12.27;99.94
14269;BME280;7218;51.480;7.006;2023-04-01T00:52:55;98294.63;;;11.98;100.00
14269;BME280;7218;51.480;7.006;2023-04-01T00:55:23;98285.44;;;12.21;100.00
14269;BME280;7218;51.480;7.006;2023-04-01T00:57:51;98283.03;;;12.90;97.31
14269;BME280;7218;51.480;7.006;2023-04-01T01:00:20;98279.94;;;12.56;98.44
14269;BME280;7218;51.480;7.006;2023-04-01T01:02:50;98280.69;;;12.14;100.00
14269;BME280;7218;51.480;7.006;2023-04-01T01:05:21;98279.91;;;12.41;99.22
14269;BME280;7218;51.480;7.006;2023-04-01T01:07:55;98281.22;;;12.34;99.14
14269;BME280;7218;51.480;7.006;2023-04-01T01:10:29;98266.28;;;12.50;99.44
14269;BME280;7218;51.480;7.006;2023-04-01T01:13:02;98283.25;;;12.29;99.03
14269;BME280;7218;51.480;7.006;2023-04-01T01:15:35;98283.63;;;12.37;99.83
14269;BME280;7218;51.480;7.006;2023-04-01T01:18:09;98281.88;;;12.52;98.53
14269;BME280;7218;51.480;7.006;2023-04-01T01:20:56;98279.94;;;12.26;99.93
14269;BME280;7218;51.480;7.006;2023-04-01T01:32:18;98269.75;;;12.51;97.76
14269;BME280;7218;51.480;7.006;2023-04-01T01:34:54;98261.66;;;12.70;96.35
14269;BME280;7218;51.480;7.006;2023-04-01T01:37:26;98269.75;;;12.65;97.27
14269;BME280;7218;51.480;7.006;2023-04-01T01:39:56;98267.41;;;12.61;97.29
14269;BME280;7218;51.480;7.006;2023-04-01T01:42:26;98267.81;;;12.69;97.54
14269;BME280;7218;51.480;7.006;2023-04-01T01:44:55;98265.50;;;12.78;96.15
14269;BME280;7218;51.480;7.006;2023-04-01T01:47:24;98270.22;;;12.58;96.62
14269;BME280;7218;51.480;7.006;2023-04-01T01:49:52;98257.94;;;12.74;96.28
14269;BME280;7218;51.480;7.006;2023-04-01T01:52:21;98261.00;;;12.66;96.24
14269;BME280;7218;51.480;7.006;2023-04-01T01:54:50;98262.97;;;12.19;98.54
14269;BME280;7218;51.480;7.006;2023-04-01T01:57:19;98265.41;;;12.36;96.32
14269;BME280;7218;51.480;7.006;2023-04-01T01:59:47;98249.69;;;12.66;95.72
14269;BME280;7218;51.480;7.006;2023-04-01T02:02:15;98261.53;;;12.43;96.66
14269;BME280;7218;51.480;7.006;2023-04-01T02:04:44;98248.94;;;12.92;94.58
14269;BME280;7218;51.480;7.006;2023-04-01T02:07:15;98251.94;;;13.00;93.73
14269;BME280;7218;51.480;7.006;2023-04-01T02:09:42;98246.63;;;12.73;93.00
14269;BME280;7218;51.480;7.006;2023-04-01T02:12:12;98254.00;;;12.67;95.03
14269;BME280;7218;51.480;7.006;2023-04-01T02:14:44;98254.47;;;12.73;94.78
14269;BME280;7218;51.480;7.006;2023-04-01T02:17:14;98253.53;;;13.17;92.43
14269;BME280;7218;51.480;7.006;2023-04-01T02:19:45;98262.31;;;12.87;93.59
14269;BME280;7218;51.480;7.006;2023-04-01T02:22:16;98260.41;;;12.61;95.66
14269;BME280;7218;51.480;7.006;2023-04-01T02:24:44;98276.78;;;12.65;95.33
14269;BME280;7218;51.480;7.006;2023-04-01T02:27:12;98262.69;;;12.23;97.79
14269;BME280;7218;51.480;7.006;2023-04-01T02:29:39;98268.53;;;13.15;94.22
14269;BME280;7218;51.480;7.006;2023-04-01T02:32:07;98266.91;;;12.70;96.05
14269;BME280;7218;51.480;7.006;2023-04-01T02:34:35;98265.22;;;12.83;95.27
14269;BME280;7218;51.480;7.006;2023-04-01T02:37:02;98271.16;;;12.71;96.11
14269;BME280;7218;51.480;7.006;2023-04-01T02:39:30;98287.06;;;12.82;95.47
14269;BME280;7218;51.480;7.006;2023-04-01T02:41:56;98280.00;;;12.40;98.92
14269;BME280;7218;51.480;7.006;2023-04-01T02:44:24;98282.44;;;12.43;98.11
14269;BME280;7218;51.480;7.006;2023-04-01T02:46:50;98285.66;;;12.76;96.35
14269;BME280;7218;51.480;7.006;2023-04-01T02:49:17;98286.16;;;12.39;98.02
14269;BME280;7218;51.480;7.006;2023-04-01T02:51:44;98305.25;;;11.95;99.89
14269;BME280;7218;51.480;7.006;2023-04-01T02:54:10;98287.59;;;12.15;99.49
14269;BME280;7218;51.480;7.006;2023-04-01T02:56:37;98299.19;;;11.79;100.00
14269;BME280;7218;51.480;7.006;2023-04-01T02:59:04;98289.91;;;12.35;98.71
14269;BME280;7218;51.480;7.006;2023-04-01T03:01:31;98285.75;;;12.31;99.54
14269;BME280;7218;51.480;7.006;2023-04-01T03:03:58;98282.94;;;12.49;98.76
14269;BME280;7218;51.480;7.006;2023-04-01T03:06:24;98284.44;;;12.54;98.59
14269;BME280;7218;51.480;7.006;2023-04-01T03:08:51;98283.44;;;12.99;96.02
14269;BME280;7218;51.480;7.006;2023-04-01T03:11:17;98285.06;;;12.57;97.54
14269;BME280;7218;51.480;7.006;2023-04-01T03:13:44;98285.75;;;12.31;99.94
14269;BME280;7218;51.480;7.006;2023-04-01T03:16:11;98291.09;;;12.29;100.00
14269;BME280;7218;51.480;7.006;2023-04-01T03:18:39;98288.81;;;12.67;98.50
14269;BME280;7218;51.480;7.006;2023-04-01T03:21:16;98293.81;;;12.42;99.64
14269;BME280;7218;51.480;7.006;2023-04-01T03:23:43;98291.97;;;12.44;99.93
14269;BME280;7218;51.480;7.006;2023-04-01T03:26:09;98291.22;;;12.12;100.00
14269;BME280;7218;51.480;7.006;2023-04-01T03:28:36;98312.97;;;11.50;100.00
14269;BME280;7218;51.480;7.006;2023-04-01T03:31:02;98294.53;;;12.30;100.00
14269;BME280;7218;51.480;7.006;2023-04-01T03:33:30;98291.94;;;12.30;100.00
14269;BME280;7218;51.480;7.006;2023-04-01T03:35:58;98310.59;;;11.30;100.00
14269;BME280;7218;51.480;7.006;2023-04-01T03:38:24;98304.94;;;11.21;100.00
14269;BME280;7218;51.480;7.006;2023-04-01T03:40:51;98304.13;;;11.52;100.00
14269;BME280;7218;51.480;7.006;2023-04-01T03:43:17;98310.84;;;11.56;100.00
14269;BME280;7218;51.480;7.006;2023-04-01T03:45:44;98293.59;;;11.70;100.00
14269;BME280;7218;51.480;7.006;2023-04-01T03:48:11;98308.75;;;11.47;100.00
14269;BME280;7218;51.480;7.006;2023-04-01T03:50:37;98294.34;;;11.56;100.00
14269;BME280;7218;51.480;7.006;2023-04-01T03:53:05;98305.06;;;11.67;100.00
14269;BME280;7218;51.480;7.006;2023-04-01T03:55:32;98319.75;;;11.37;100.00
14269;BME280;7218;51.480;7.006;2023-04-01T03:57:59;98306.59;;;11.87;100.00
14269;BME280;7218;51.480;7.006;2023-04-01T04:00:27;98307.75;;;11.81;100.00
14269;BME280;7218;51.480;7.006;2023-04-01T04:02:54;98305.59;;;11.74;100.00
14269;BME280;7218;51.480;7.006;2023-04-01T04:05:21;98302.28;;;11.86;100.00
14269;BME280;7218;51.480;7.006;2023-04-01T04:07:48;98302.97;;;11.89;100.00
14269;BME280;7218;51.480;7.006;2023-04-01T04:10:16;98306.34;;;11.60;100.00
14269;BME280;7218;51.480;7.006;2023-04-01T04:12:42;98304.59;;;12.06;100.00
14269;BME280;7218;51.480;7.006;2023-04-01T04:15:10;98310.38;;;12.27;100.00
14269;BME280;7218;51.480;7.006;2023-04-01T04:17:36;98316.25;;;12.00;100.00
14269;BME280;7218;51.480;7.006;2023-04-01T04:20:04;98307.34;;;11.89;100.00
14269;BME280;7218;51.480;7.006;2023-04-01T04:22:30;98312.38;;;12.07;100.00
14269;BME280;7218;51.480;7.006;2023-04-01T04:24:57;98324.53;;;11.77;100.00
14269;BME280;7218;51.480;7.006;2023-04-01T04:27:25;98313.81;;;11.97;100.00
14269;BME280;7218;51.480;7.006;2023-04-01T04:29:52;98317.00;;;11.71;100.00
14269;BME280;7218;51.480;7.006;2023-04-01T04:32:18;98320.22;;;12.07;100.00
14269;BME280;7218;51.480;7.006;2023-04-01T04:34:45;98321.00;;;11.78;100.00
14269;BME280;7218;51.480;7.006;2023-04-01T04:37:11;98320.47;;;11.72;100.00
14269;BME280;7218;51.480;7.006;2023-04-01T04:39:38;98341.81;;;11.80;100.00
14269;BME280;7218;51.480;7.006;2023-04-01T04:42:05;98325.13;;;11.98;100.00
14269;BME280;7218;51.480;7.006;2023-04-01T04:44:33;98327.00;;;12.26;100.00
14269;BME280;7218;51.480;7.006;2023-04-01T04:47:00;98324.50;;;12.54;100.00
14269;BME280;7218;51.480;7.006;2023-04-01T04:49:27;98328.44;;;12.45;99.61
14269;BME280;7218;51.480;7.006;2023-04-01T04:51:53;98329.75;;;11.93;100.00
14269;BME280;7218;51.480;7.006;2023-04-01T04:54:20;98329.09;;;11.74;100.00
14269;BME280;7218;51.480;7.006;2023-04-01T04:56:46;98329.69;;;12.40;99.93
14269;BME280;7218;51.480;7.006;2023-04-01T04:59:13;98327.81;;;11.96;100.00
14269;BME280;7218;51.480;7.006;2023-04-01T05:01:41;98345.28;;;12.56;100.00
14269;BME280;7218;51.480;7.006;2023-04-01T05:04:07;98341.69;;;12.13;100.00
14269;BME280;7218;51.480;7.006;2023-04-01T05:06:35;98340.28;;;11.91;100.00
14269;BME280;7218;51.480;7.006;2023-04-01T05:09:01;98333.78;;;12.74;97.93
14269;BME280;7218;51.480;7.006;2023-04-01T05:11:28;98338.44;;;12.39;100.00
14269;BME280;7218;51.480;7.006;2023-04-01T05:13:55;98340.06;;;12.56;99.02
14269;BME280;7218;51.480;7.006;2023-04-01T05:16:21;98341.63;;;12.74;97.07
14269;BME280;7218;51.480;7.006;2023-04-01T05:18:49;98350.78;;;12.05;100.00
14269;BME280;7218;51.480;7.006;2023-04-01T05:21:16;98338.44;;;12.39;100.00
14269;BME280;7218;51.480;7.006;2023-04-01T05:23:42;98338.16;;;12.73;98.75
14269;BME280;7218;51.480;7.006;2023-04-01T05:26:10;98337.25;;;12.88;98.38
14269;BME280;7218;51.480;7.006;2023-04-01T05:28:37;98352.34;;;12.69;98.11
14269;BME280;7218;51.480;7.006;2023-04-01T05:31:05;98345.94;;;12.45;100.00
14269;BME280;7218;51.480;7.006;2023-04-01T05:33:32;98351.97;;;12.75;98.67
14269;BME280;7218;51.480;7.006;2023-04-01T05:36:07;98345.22;;;12.57;100.00
14269;BME280;7218;51.480;7.006;2023-04-01T05:38:34;98351.34;;;12.26;100.00
14269;BME280;7218;51.480;7.006;2023-04-01T05:41:01;98351.78;;;12.64;99.39
14269;BME280;7218;51.480;7.006;2023-04-01T05:43:28;98359.06;;;11.98;100.00
14269;BME280;7218;51.480;7.006;2023-04-01T05:45:54;98356.44;;;12.14;100.00
14269;BME280;7218;51.480;7.006;2023-04-01T05:48:21;98367.34;;;11.75;100.00
14269;BME280;7218;51.480;7.006;2023-04-01T05:50:47;98355.63;;;12.43;100.00
14269;BME280;7218;51.480;7.006;2023-04-01T05:53:15;98362.00;;;12.53;100.00
14269;BME280;7218;51.480;7.006;2023-04-01T05:55:42;98375.41;;;11.86;100.00
14269;BME280;7218;51.480;7.006;2023-04-01T05:58:08;98360.34;;;12.36;100.00
14269;BME280;7218;51.480;7.006;2023-04-01T06:00:35;98362.34;;;12.47;99.58
14269;BME280;7218;51.480;7.006;2023-04-01T06:03:02;98367.00;;;12.42;100.00
14269;BME280;7218;51.480;7.006;2023-04-01T06:05:30;98369.53;;;11.98;100.00
14269;BME280;7218;51.480;7.006;2023-04-01T06:07:59;98371.63;;;11.91;100.00
14269;BME280;7218;51.480;7.006;2023-04-01T06:10:37;98363.13;;;12.03;100.00
14269;BME280;7218;51.480;7.006;2023-04-01T06:13:07;98373.09;;;12.27;100.00
14269;BME280;7218;51.480;7.006;2023-04-01T06:15:42;98376.31;;;12.16;100.00
14269;BME280;7218;51.480;7.006;2023-04-01T06:18:34;98378.47;;;12.55;100.00
14269;BME280;7218;51.480;7.006;2023-04-01T06:21:12;98381.72;;;12.29;100.00
14269;BME280;7218;51.480;7.006;2023-04-01T06:23:56;98391.44;;;11.95;100.00
14269;BME280;7218;51.480;7.006;2023-04-01T06:26:34;98380.69;;;12.61;100.00
14269;BME280;7218;51.480;7.006;2023-04-01T06:29:19;98384.09;;;12.18;100.00
14269;BME280;7218;51.480;7.006;2023-04-01T06:32:06;98397.81;;;12.05;100.00
14269;BME280;7218;51.480;7.006;2023-04-01T06:38:06;98403.56;;;11.96;100.00
14269;BME280;7218;51.480;7.006;2023-04-01T06:40:55;98394.13;;;12.10;100.00
14269;BME280;7218;51.480;7.006;2023-04-01T06:43:38;98389.38;;;12.32;100.00
14269;BME280;7218;51.480;7.006;2023-04-01T06:46:16;98397.44;;;12.43;100.00
14269;BME280;7218;51.480;7.006;2023-04-01T06:48:56;98400.03;;;11.97;100.00
14269;BME280;7218;51.480;7.006;2023-04-01T06:51:34;98394.78;;;11.82;100.00
14269;BME280;7218;51.480;7.006;2023-04-01T06:54:09;98394.72;;;12.30;100.00
14269;BME280;7218;51.480;7.006;2023-04-01T06:56:40;98409.13;;;11.90;100.00
14269;BME280;7218;51.480;7.006;2023-04-01T06:59:12;98398.66;;;12.22;100.00
14269;BME280;7218;51.480;7.006;2023-04-01T07:01:42;98409.09;;;12.37;100.00
14269;BME280;7218;51.480;7.006;2023-04-01T07:04:14;98408.59;;;12.31;100.00
14269;BME280;7218;51.480;7.006;2023-04-01T07:06:46;98398.81;;;12.34;100.00
14269;BME280;7218;51.480;7.006;2023-04-01T07:09:17;98402.03;;;12.69;100.00
14269;BME280;7218;51.480;7.006;2023-04-01T07:11:45;98413.25;;;11.94;100.00
14269;BME280;7218;51.480;7.006;2023-04-01T07:14:18;98409.63;;;12.28;100.00
14269;BME280;7218;51.480;7.006;2023-04-01T07:16:48;98415.63;;;12.15;100.00
14269;BME280;7218;51.480;7.006;2023-04-01T07:19:18;98421.59;;;12.01;100.00
14269;BME280;7218;51.480;7.006;2023-04-01T07:21:48;98416.69;;;11.79;100.00
14269;BME280;7218;51.480;7.006;2023-04-01T07:24:21;98413.59;;;12.20;100.00
14269;BME280;7218;51.480;7.006;2023-04-01T07:26:53;98417.34;;;12.45;100.00
14269;BME280;7218;51.480;7.006;2023-04-01T07:29:22;98424.00;;;12.51;100.00
14269;BME280;7218;51.480;7.006;2023-04-01T07:34:47;98434.38;;;12.82;99.76
14269;BME280;7218;51.480;7.006;2023-04-01T07:37:20;98434.75;;;12.15;100.00
14269;BME280;7218;51.480;7.006;2023-04-01T07:39:54;98435.56;;;12.16;100.00
14269;BME280;7218;51.480;7.006;2023-04-01T07:42:30;98426.00;;;12.91;99.16
14269;BME280;7218;51.480;7.006;2023-04-01T07:45:05;98429.31;;;12.49;100.00
14269;BME280;7218;51.480;7.006;2023-04-01T07:47:43;98453.78;;;12.33;100.00
14269;BME280;7218;51.480;7.006;2023-04-01T07:50:18;98445.34;;;11.96;100.00
14269;BME280;7218;51.480;7.006;2023-04-01T07:52:53;98452.09;;;12.00;100.00
14269;BME280;7218;51.480;7.006;2023-04-01T07:55:28;98443.63;;;12.74;100.00
14269;BME280;7218;51.480;7.006;2023-04-01T07:58:00;98444.69;;;11.93;100.00
14269;BME280;7218;51.480;7.006;2023-04-01T08:00:36;98458.06;;;12.02;100.00
14269;BME280;7218;51.480;7.006;2023-04-01T08:03:18;98458.50;;;12.42;100.00
14269;BME280;7218;51.480;7.006;2023-04-01T08:05:54;98460.84;;;12.62;100.00
14269;BME280;7218;51.480;7.006;2023-04-01T08:08:31;98459.44;;;12.86;99.82
14269;BME280;7218;51.480;7.006;2023-04-01T08:11:06;98460.66;;;12.65;100.00
14269;BME280;7218;51.480;7.006;2023-04-01T08:13:38;98470.91;;;12.38;100.00
14269;BME280;7218;51.480;7.006;2023-04-01T08:16:14;98462.44;;;12.65;100.00
14269;BME280;7218;51.480;7.006;2023-04-01T08:18:46;98476.78;;;12.73;100.00
14269;BME280;7218;51.480;7.006;2023-04-01T08:21:20;98468.91;;;12.73;100.00
14269;BME280;7218;51.480;7.006;2023-04-01T08:23:50;98473.44;;;12.85;100.00
14269;BME280;7218;51.480;7.006;2023-04-01T08:26:26;98476.00;;;13.01;98.37
14269;BME280;7218;51.480;7.006;2023-04-01T08:28:59;98474.13;;;12.89;99.16
14269;BME280;7218;51.480;7.006;2023-04-01T08:31:33;98486.06;;;12.32;100.00
14269;BME280;7218;51.480;7.006;2023-04-01T08:34:04;98492.59;;;12.25;100.00
14269;BME280;7218;51.480;7.006;2023-04-01T08:36:37;98496.53;;;12.47;100.00
14269;BME280;7218;51.480;7.006;2023-04-01T08:39:07;98499.44;;;12.88;99.84
14269;BME280;7218;51.480;7.006;2023-04-01T08:42:03;98492.84;;;13.27;98.88
14269;BME280;7218;51.480;7.006;2023-04-01T08:44:52;98499.13;;;12.63;100.00
14269;BME280;7218;51.480;7.006;2023-04-01T08:53:54;98519.06;;;12.34;100.00
14269;BME280;7218;51.480;7.006;2023-04-01T08:56:27;98512.06;;;13.12;98.96
14269;BME280;7218;51.480;7.006;2023-04-01T08:59:24;98509.56;;;12.94;99.15
14269;BME280;7218;51.480;7.006;2023-04-01T09:02:30;98518.00;;;13.00;99.21
14269;BME280;7218;51.480;7.006;2023-04-01T09:05:38;98520.53;;;12.85;99.92
14269;BME280;7218;51.480;7.006;2023-04-01T09:08:17;98534.56;;;13.60;96.46
14269;BME280;7218;51.480;7.006;2023-04-01T09:10:54;98532.34;;;12.61;100.00
14269;BME280;7218;51.480;7.006;2023-04-01T09:16:57;98530.53;;;13.09;98.50
14269;BME280;7218;51.480;7.006;2023-04-01T09:19:36;98538.13;;;13.87;96.01
14269;BME280;7218;51.480;7.006;2023-04-01T09:22:24;98541.88;;;13.39;98.41
14269;BME280;7218;51.480;7.006;2023-04-01T09:25:22;98545.75;;;13.02;99.91
14269;BME280;7218;51.480;7.006;2023-04-01T09:27:56;98539.13;;;13.70;96.71
14269;BME280;7218;51.480;7.006;2023-04-01T09:36:33;98553.97;;;13.26;97.58
14269;BME280;7218;51.480;7.006;2023-04-01T09:39:34;98559.66;;;13.92;95.26
14269;BME280;7218;51.480;7.006;2023-04-01T09:42:31;98562.34;;;13.32;97.82
14269;BME280;7218;51.480;7.006;2023-04-01T09:45:05;98565.72;;;13.64;97.85
14269;BME280;7218;51.480;7.006;2023-04-01T09:47:45;98560.91;;;13.27;98.50
14269;BME280;7218;51.480;7.006;2023-04-01T09:50:25;98570.22;;;13.91;96.17
14269;BME280;7218;51.480;7.006;2023-04-01T09:53:03;98565.78;;;13.63;96.14
14269;BME280;7218;51.480;7.006;2023-04-01T09:56:01;98569.06;;;13.66;96.39
14269;BME280;7218;51.480;7.006;2023-04-01T09:59:00;98581.53;;;13.91;95.40
14269;BME280;7218;51.480;7.006;2023-04-01T10:01:40;98573.81;;;13.30;97.97
14269;BME280;7218;51.480;7.006;2023-04-01T10:04:23;98575.28;;;13.94;95.73
14269;BME280;7218;51.480;7.006;2023-04-01T10:07:20;98587.19;;;14.56;92.13
14269;BME280;7218;51.480;7.006;2023-04-01T10:13:17;98586.16;;;13.58;96.33
14269;BME280;7218;51.480;7.006;2023-04-01T10:16:26;98580.53;;;14.08;94.81
14269;BME280;7218;51.480;7.006;2023-04-01T10:19:14;98593.03;;;13.74;97.16
14269;BME280;7218;51.480;7.006;2023-04-01T10:22:10;98595.13;;;13.98;96.04
14269;BME280;7218;51.480;7.006;2023-04-01T10:24:56;98596.56;;;13.59;99.08
14269;BME280;7218;51.480;7.006;2023-04-01T10:27:34;98601.69;;;13.31;99.86
14269;BME280;7218;51.480;7.006;2023-04-01T10:30:50;98602.44;;;13.33;100.00
14269;BME280;7218;51.480;7.006;2023-04-01T10:33:49;98602.72;;;13.58;100.00
14269;BME280;7218;51.480;7.006;2023-04-01T10:39:52;98597.25;;;13.91;96.96
14269;BME280;7218;51.480;7.006;2023-04-01T10:42:49;98606.66;;;14.09;96.87
14269;BME280;7218;51.480;7.006;2023-04-01T10:48:44;98610.84;;;13.54;99.16
14269;BME280;7218;51.480;7.006;2023-04-01T10:51:28;98619.94;;;13.62;98.64
14269;BME280;7218;51.480;7.006;2023-04-01T10:54:21;98621.88;;;13.29;99.13
14269;BME280;7218;51.480;7.006;2023-04-01T10:56:59;98612.25;;;13.89;97.18
14269;BME280;7218;51.480;7.006;2023-04-01T11:06:31;98623.03;;;14.13;94.82
14269;BME280;7218;51.480;7.006;2023-04-01T11:15:17;98629.16;;;13.69;96.78
14269;BME280;7218;51.480;7.006;2023-04-01T11:18:27;98637.19;;;13.80;96.88
14269;BME280;7218;51.480;7.006;2023-04-01T11:21:14;98642.53;;;13.49;98.44
14269;BME280;7218;51.480;7.006;2023-04-01T11:24:00;98642.09;;;14.01;95.73
14269;BME280;7218;51.480;7.006;2023-04-01T11:26:33;98651.47;;;14.05;95.18
14269;BME280;7218;51.480;7.006;2023-04-01T11:29:25;98635.78;;;13.75;96.35
14269;BME280;7218;51.480;7.006;2023-04-01T11:32:03;98660.88;;;14.23;94.91
14269;BME280;7218;51.480;7.006;2023-04-01T11:34:54;98648.72;;;14.50;92.58
14269;BME280;7218;51.480;7.006;2023-04-01T11:37:32;98662.72;;;14.21;95.37
14269;BME280;7218;51.480;7.006;2023-04-01T11:40:14;98666.56;;;13.71;97.37
14269;BME280;7218;51.480;7.006;2023-04-01T11:42:53;98662.75;;;13.77;97.63
14269;BME280;7218;51.480;7.006;2023-04-01T11:45:34;98669.41;;;14.27;95.29
14269;BME280;7218;51.480;7.006;2023-04-01T11:48:24;98664.28;;;14.68;93.27
14269;BME280;7218;51.480;7.006;2023-04-01T11:51:10;98670.88;;;13.72;96.61
14269;BME280;7218;51.480;7.006;2023-04-01T11:53:47;98682.19;;;14.03;96.79
14269;BME280;7218;51.480;7.006;2023-04-01T11:56:36;98684.47;;;13.33;99.25
14269;BME280;7218;51.480;7.006;2023-04-01T12:02:13;98693.00;;;13.67;98.51
14269;BME280;7218;51.480;7.006;2023-04-01T12:08:07;98690.47;;;13.95;96.50
14269;BME280;7218;51.480;7.006;2023-04-01T12:10:39;98695.59;;;13.83;97.02
14269;BME280;7218;51.480;7.006;2023-04-01T12:13:19;98708.88;;;13.79;96.99
14269;BME280;7218;51.480;7.006;2023-04-01T12:16:12;98701.63;;;14.29;95.18
14269;BME280;7218;51.480;7.006;2023-04-01T12:18:46;98712.19;;;13.67;96.76
14269;BME280;7218;51.480;7.006;2023-04-01T12:21:23;98707.00;;;14.55;93.94
14269;BME280;7218;51.480;7.006;2023-04-01T12:24:20;98713.00;;;14.57;93.62
14269;BME280;7218;51.480;7.006;2023-04-01T12:30:05;98717.50;;;14.70;93.07
14269;BME280;7218;51.480;7.006;2023-04-01T12:32:40;98722.72;;;15.26;91.21
14269;BME280;7218;51.480;7.006;2023-04-01T12:35:18;98723.97;;;14.20;94.57
14269;BME280;7218;51.480;7.006;2023-04-01T12:37:53;98738.13;;;14.32;94.55
14269;BME280;7218;51.480;7.006;2023-04-01T12:40:47;98735.75;;;14.43;94.00
14269;BME280;7218;51.480;7.006;2023-04-01T12:46:21;98742.00;;;14.40;94.79
14269;BME280;7218;51.480;7.006;2023-04-01T12:49:15;98743.63;;;14.13;95.68
14269;BME280;7218;51.480;7.006;2023-04-01T12:52:07;98748.72;;;14.88;92.47
14269;BME280;7218;51.480;7.006;2023-04-01T12:55:06;98751.97;;;14.49;94.68
14269;BME280;7218;51.480;7.006;2023-04-01T13:01:02;98772.41;;;14.29;94.00
14269;BME280;7218;51.480;7.006;2023-04-01T13:03:52;98767.97;;;14.45;94.87
14269;BME280;7218;51.480;7.006;2023-04-01T13:06:46;98764.72;;;14.55;94.10
14269;BME280;7218;51.480;7.006;2023-04-01T13:09:25;98776.56;;;14.91;92.08
14269;BME280;7218;51.480;7.006;2023-04-01T13:12:14;98775.81;;;15.03;91.59
14269;BME280;7218;51.480;7.006;2023-04-01T13:14:56;98772.88;;;14.65;93.55
14269;BME280;7218;51.480;7.006;2023-04-01T13:17:30;98780.94;;;14.76;93.07
14269;BME280;7218;51.480;7.006;2023-04-01T13:20:03;98788.97;;;13.99;96.57
14269;BME280;7218;51.480;7.006;2023-04-01T13:22:45;98786.13;;;14.78;92.57
14269;BME280;7218;51.480;7.006;2023-04-01T13:25:22;98794.13;;;14.60;93.23
14269;BME280;7218;51.480;7.006;2023-04-01T13:27:56;98803.38;;;14.38;93.82
14269;BME280;7218;51.480;7.006;2023-04-01T13:30:30;98808.66;;;13.91;96.97
14269;BME280;7218;51.480;7.006;2023-04-01T13:33:03;98804.34;;;14.35;94.62
14269;BME280;7218;51.480;7.006;2023-04-01T13:35:40;98800.94;;;14.79;92.44
14269;BME280;7218;51.480;7.006;2023-04-01T13:38:21;98818.50;;;14.48;94.15
14269;BME280;7218;51.480;7.006;2023-04-01T13:40:59;98805.34;;;14.78;92.85
14269;BME280;7218;51.480;7.006;2023-04-01T13:43:35;98813.28;;;14.62;93.04
14269;BME280;7218;51.480;7.006;2023-04-01T13:46:12;98816.59;;;14.50;93.79
14269;BME280;7218;51.480;7.006;2023-04-01T13:48:59;98813.25;;;14.33;94.50
14269;BME280;7218;51.480;7.006;2023-04-01T13:51:52;98814.63;;;14.24;94.96
14269;BME280;7218;51.480;7.006;2023-04-01T13:57:40;98815.94;;;14.47;93.58
14269;BME280;7218;51.480;7.006;2023-04-01T14:00:35;98828.03;;;14.04;96.15
14269;BME280;7218;51.480;7.006;2023-04-01T14:03:32;98824.75;;;14.46;93.56
14269;BME280;7218;51.480;7.006;2023-04-01T14:06:29;98827.63;;;13.64;97.16
14269;BME280;7218;51.480;7.006;2023-04-01T14:09:14;98834.97;;;14.50;93.01
14269;BME280;7218;51.480;7.006;2023-04-01T14:11:50;98839.59;;;14.15;95.27
14269;BME280;7218;51.480;7.006;2023-04-01T14:14:28;98840.22;;;13.73;96.73
14269;BME280;7218;51.480;7.006;2023-04-01T14:17:17;98841.53;;;14.12;95.38
14269;BME280;7218;51.480;7.006;2023-04-01T14:20:02;98844.94;;;13.67;96.66
14269;BME280;7218;51.480;7.006;2023-04-01T14:22:38;98838.34;;;14.52;94.06
14269;BME280;7218;51.480;7.006;2023-04-01T14:25:25;98856.09;;;13.70;97.16
14269;BME280;7218;51.480;7.006;2023-04-01T14:28:06;98860.16;;;13.76;97.44
14269;BME280;7218;51.480;7.006;2023-04-01T14:30:44;98859.72;;;14.60;94.04
14269;BME280;7218;51.480;7.006;2023-04-01T14:33:28;98863.09;;;14.01;96.15
14269;BME280;7218;51.480;7.006;2023-04-01T14:36:14;98864.72;;;14.04;96.51
14269;BME280;7218;51.480;7.006;2023-04-01T14:38:53;98862.53;;;13.96;95.66
14269;BME280;7218;51.480;7.006;2023-04-01T14:41:32;98866.91;;;13.96;97.67
14269;BME280;7218;51.480;7.006;2023-04-01T14:44:15;98865.50;;;14.51;94.39
14269;BME280;7218;51.480;7.006;2023-04-01T14:47:09;98878.16;;;14.29;94.92
14269;BME280;7218;51.480;7.006;2023-04-01T14:49:42;98870.97;;;14.17;96.50
14269;BME280;7218;51.480;7.006;2023-04-01T14:52:14;98879.50;;;14.05;96.14
14269;BME280;7218;51.480;7.006;2023-04-01T14:54:44;98877.75;;;13.90;97.34
14269;BME280;7218;51.480;7.006;2023-04-01T14:57:14;98883.22;;;14.01;96.90
14269;BME280;7218;51.480;7.006;2023-04-01T14:59:47;98884.41;;;14.27;96.26
14269;BME280;7218;51.480;7.006;2023-04-01T15:02:36;98883.72;;;14.54;94.27